Time;durP1;ratioP1;P1;durP2;ratioP2;P2;SDS_P1;SDS_P2;PMS_P1;PMS_P2;Temp;Humidity;BMP_temperature;BMP_pressure;BME280_temperature;BME280_humidity;BME280_pressure;Samples;Min_cycle;Max_cycle;Signal;HPM_P1;HPM_P2
2022/02/10 00:05:53;;;;;;;;;;;;;;;5.15;71.70;101583.31;7362067;19;19922;-62
2022/02/10 00:21:51;;;;;;;;;;;;;;;5.08;71.93;101578.91;7356307;19;19919;-63
2022/02/10 00:35:52;;;;;;;;;;;;;;;5.02;71.71;101581.38;7358836;19;20307;-64
2022/02/10 00:38:02;;;;;;;;;;;;;;;5.00;71.77;101573.59;7265555;19;2004444;-62
2022/02/10 00:40:32;;;;;;;;;;;;;;;4.99;72.02;101571.00;7365758;19;19982;-63
2022/02/10 00:42:59;;;;;;;;;;;;;;;4.99;72.10;101576.19;7367430;19;19911;-63
2022/02/10 00:45:27;;;;;;;;;;;;;;;4.97;71.81;101567.50;7372483;19;19934;-63
2022/02/10 00:50:22;;;;;;;;;;;;;;;4.95;72.22;101581.31;7374255;19;19982;-63
2022/02/10 00:52:49;;;;;;;;;;;;;;;4.93;72.15;101575.25;7367672;19;19980;-64
2022/02/10 00:55:17;;;;;;;;;;;;;;;4.92;71.79;101570.06;7365380;19;19962;-62
2022/02/10 00:57:43;;;;;;;;;;;;;;;4.91;72.21;101582.09;7365770;19;19921;-63
2022/02/10 01:00:36;;;;;;;;;;;;;;;4.90;72.14;101577.78;7365290;19;19990;-63
2022/02/10 01:11:16;;;;;;;;;;;;;;;4.86;72.09;101557.00;7363937;19;20493;-62
2022/02/10 01:29:35;;;;;;;;;;;;;;;4.78;72.03;101562.09;7261981;19;2005817;-64
2022/02/10 01:30:15;;;;;;;;;;;;;;;4.75;72.37;101559.44;7258874;19;2004442;-64
2022/02/10 01:32:45;;;;;;;;;;;;;;;4.73;72.03;101553.38;7372917;19;19922;-63
2022/02/10 01:35:15;;;;;;;;;;;;;;;4.71;72.01;101570.59;7367945;19;19919;-62
2022/02/10 01:37:41;;;;;;;;;;;;;;;4.70;72.03;101561.09;7373410;19;20361;-62
2022/02/10 01:40:12;;;;;;;;;;;;;;;4.67;72.09;101553.31;7365268;19;20029;-62
2022/02/10 02:04:11;;;;;;;;;;;;;;;4.47;72.31;101554.72;7365285;19;20033;-61
2022/02/10 02:06:45;;;;;;;;;;;;;;;4.44;72.30;101550.34;7362617;19;19925;-62
2022/02/10 02:09:13;;;;;;;;;;;;;;;4.42;72.46;101552.91;7359745;19;19918;-63
2022/02/10 02:11:39;;;;;;;;;;;;;;;4.41;72.05;101543.41;7355322;19;20246;-62
2022/02/10 02:14:11;;;;;;;;;;;;;;;4.39;72.16;101552.84;7366067;19;20741;-63
2022/02/10 02:16:43;;;;;;;;;;;;;;;4.38;72.28;101551.13;7366112;19;19929;-61
2022/02/10 02:19:08;;;;;;;;;;;;;;;4.38;72.24;101550.25;7370556;19;19923;-62
2022/02/10 02:21:36;;;;;;;;;;;;;;;4.36;72.41;101557.13;7371707;19;19917;-61
2022/02/10 02:24:01;;;;;;;;;;;;;;;4.34;72.59;101549.31;7369528;19;19919;-61
2022/02/10 02:26:27;;;;;;;;;;;;;;;4.33;72.71;101547.59;7374418;19;20336;-61
2022/02/10 02:28:58;;;;;;;;;;;;;;;4.32;72.30;101544.97;7368641;19;19915;-63
2022/02/10 02:31:28;;;;;;;;;;;;;;;4.31;72.55;101544.13;7373562;19;19936;-61
2022/02/10 02:36:58;;;;;;;;;;;;;;;4.26;72.51;101538.00;7367152;19;20618;-61
2022/02/10 03:06:43;;;;;;;;;;;;;;;4.00;72.45;101531.50;7251492;19;2004338;-62
2022/02/10 03:09:12;;;;;;;;;;;;;;;3.98;72.72;101528.03;7358452;19;19914;-63
2022/02/10 03:11:40;;;;;;;;;;;;;;;3.96;72.66;101529.72;7357845;19;20297;-64
2022/02/10 03:14:30;;;;;;;;;;;;;;;3.92;72.51;101530.50;3864454;19;10001823;-63
2022/02/10 04:16:39;;;;;;;;;;;;;;;3.63;73.25;101500.72;7371011;19;19940;-63
2022/02/10 04:19:43;;;;;;;;;;;;;;;3.63;73.10;101510.16;7362741;19;19929;-65
2022/02/10 04:22:20;;;;;;;;;;;;;;;3.61;73.16;101506.69;7260003;19;2004123;-64
2022/02/10 04:27:27;;;;;;;;;;;;;;;3.58;73.42;101510.09;7373850;19;19923;-63
2022/02/10 04:37:32;;;;;;;;;;;;;;;3.56;73.62;101516.06;7364997;19;19984;-62
2022/02/10 04:54:47;;;;;;;;;;;;;;;3.48;73.43;101503.00;7368442;19;19934;-65
2022/02/10 04:57:27;;;;;;;;;;;;;;;3.49;73.88;101501.28;7261442;19;2004620;-64
2022/02/10 05:00:25;;;;;;;;;;;;;;;3.49;73.89;101503.88;7265716;19;2004639;-64
2022/02/10 05:03:28;;;;;;;;;;;;;;;3.48;73.63;101517.63;7367695;19;19974;-63
2022/02/10 05:33:12;;;;;;;;;;;;;;;3.43;73.96;101519.25;7368346;19;19921;-65
2022/02/10 05:38:07;;;;;;;;;;;;;;;3.42;73.64;101514.94;7367927;19;20249;-64
2022/02/10 05:45:41;;;;;;;;;;;;;;;3.39;73.97;101501.09;7362885;19;19918;-63
2022/02/10 06:52:40;;;;;;;;;;;;;;;3.25;74.67;101514.59;7368523;19;19919;-62
2022/02/10 06:54:59;;;;;;;;;;;;;;;3.24;74.38;101516.28;7360242;19;19919;-63
2022/02/10 07:05:41;;;;;;;;;;;;;;;3.25;74.79;101523.22;7358659;19;19922;-62
2022/02/10 07:11:01;;;;;;;;;;;;;;;3.26;74.97;101535.28;7364032;19;20363;-62
2022/02/10 07:13:49;;;;;;;;;;;;;;;3.25;74.70;101536.13;7347738;19;19982;-65
2022/02/10 07:51:35;;;;;;;;;;;;;;;3.25;74.88;101543.00;7358853;19;19944;-64
2022/02/10 08:50:30;;;;;;;;;;;;;;;3.95;75.30;101600.31;7236082;19;19930;-64
2022/02/10 16:40:22;;;;;;;0.10;0.10;;;;;;;8.57;61.88;101864.25;7396751;19;20741;-60
2022/02/10 16:42:48;;;;;;;0.00;0.00;;;;;;;8.91;61.00;101866.94;7398468;19;20026;-61
2022/02/10 16:45:14;;;;;;;0.10;0.10;;;;;;;9.17;60.48;101873.97;7398945;19;20548;-60
2022/02/10 16:47:40;;;;;;;0.00;0.00;;;;;;;9.31;59.74;101869.66;7394954;19;21828;-60
2022/02/10 16:50:05;;;;;;;0.00;0.00;;;;;;;9.39;59.10;101870.53;7397318;19;20006;-60
2022/02/10 16:52:37;;;;;;;0.10;0.10;;;;;;;9.43;58.85;101872.28;7393378;19;20482;-60
2022/02/10 16:55:17;;;;;;;0.00;0.00;;;;;;;9.43;59.29;101887.94;7395932;19;20019;-61
2022/02/10 16:57:57;;;;;;;0.00;0.00;;;;;;;9.32;58.40;101889.63;7399185;19;20010;-60
2022/02/10 17:14:03;;;;;;;0.00;0.00;;;;;;;9.13;59.08;101906.13;7398951;19;20010;-61
2022/02/10 17:19:59;;;;;;;0.00;0.00;;;;;;;8.62;59.57;101926.75;7394581;19;20020;-60
2022/02/10 17:27:36;;;;;;;0.00;0.00;;;;;;;8.35;59.88;101950.84;7389480;19;20114;-60
2022/02/10 17:53:56;;;;;;;0.00;0.00;;;;;;;7.62;61.63;102005.75;7366457;19;20037;-60
2022/02/10 17:56:23;;;;;;;0.00;0.00;;;;;;;7.58;61.71;102008.28;7366700;19;20045;-61
2022/02/10 17:58:50;;;;;;;0.00;0.00;;;;;;;7.44;62.03;102000.34;7367143;19;20018;-60
2022/02/10 18:01:15;;;;;;;0.00;0.00;;;;;;;7.44;61.70;102011.59;7365404;19;20039;-60
2022/02/10 18:03:41;;;;;;;0.00;0.00;;;;;;;7.40;62.42;102014.16;7371265;19;20044;-60
2022/02/10 18:06:19;;;;;;;0.00;0.00;;;;;;;7.33;62.36;102018.41;7373534;19;20010;-61
2022/02/10 18:16:56;;;;;;;0.00;0.00;;;;;;;7.04;62.55;102031.03;7368373;19;20022;-60
2022/02/10 18:25:13;;;;;;;0.00;0.00;;;;;;;6.80;62.94;102026.41;7359238;19;20489;-60
2022/02/10 19:07:53;;;;;;;0.00;0.00;;;;;;;5.82;65.59;102097.34;7371110;19;20017;-59
2022/02/10 19:10:23;;;;;;;0.00;0.00;;;;;;;5.78;65.67;102095.56;7358511;19;20007;-59
2022/02/10 19:12:54;;;;;;;0.00;0.00;;;;;;;5.76;65.70;102092.06;7360386;19;20010;-60
2022/02/10 19:15:32;;;;;;;0.00;0.00;;;;;;;5.75;65.30;102090.31;7358205;19;20010;-60
2022/02/10 19:17:58;;;;;;;;;;;;;;;5.76;64.58;102091.19;7359278;19;20687;-60
2022/02/10 19:20:23;;;;;;;0.05;0.05;;;;;;;5.68;65.50;102088.47;7362737;19;19930;-60
2022/02/10 19:22:49;;;;;;;0.00;0.00;;;;;;;5.69;66.03;102090.19;7355985;19;20015;-60
2022/02/10 19:25:16;;;;;;;0.10;0.10;;;;;;;5.64;66.08;102087.50;7359258;19;20027;-59
2022/02/10 19:27:43;;;;;;;0.00;0.00;;;;;;;5.63;65.99;102096.13;7358460;19;20023;-60
2022/02/10 19:30:10;;;;;;;0.00;0.00;;;;;;;5.61;65.92;102103.00;7359185;19;20482;-59
2022/02/10 19:32:40;;;;;;;0.03;0.03;;;;;;;5.59;65.95;102109.88;7363729;19;20821;-60
2022/02/10 19:35:07;;;;;;;0.00;0.00;;;;;;;5.57;66.49;102108.06;7355400;19;20017;-60
2022/02/10 19:37:33;;;;;;;0.00;0.00;;;;;;;5.54;66.61;102100.25;7358473;19;20040;-60
2022/02/10 19:40:01;;;;;;;0.00;0.00;;;;;;;5.52;66.56;102105.38;7359831;19;20508;-59
2022/02/10 19:42:31;;;;;;;0.00;0.00;;;;;;;5.46;66.18;102097.50;7355672;19;20021;-59
2022/02/10 19:45:00;;;;;;;0.00;0.00;;;;;;;5.46;66.63;102111.31;7362447;19;20010;-60
2022/02/10 19:47:30;;;;;;;0.00;0.00;;;;;;;5.44;66.86;102117.31;7363485;19;20003;-60
2022/02/10 19:49:57;;;;;;;0.00;0.00;;;;;;;5.41;66.79;102119.84;7357218;19;20045;-61
2022/02/10 19:52:23;;;;;;;0.00;0.00;;;;;;;5.39;67.04;102114.63;7354807;19;20022;-61
2022/02/10 19:54:52;;;;;;;0.00;0.00;;;;;;;5.37;67.05;102126.69;7352745;19;20010;-61
2022/02/10 19:57:19;;;;;;;0.00;0.00;;;;;;;5.35;66.97;102128.34;7355006;19;20006;-61
2022/02/10 19:59:45;;;;;;;0.00;0.00;;;;;;;5.30;66.81;102127.38;7363225;19;20022;-61
2022/02/10 20:02:11;;;;;;;0.00;0.00;;;;;;;5.18;67.35;102112.47;7358191;19;20012;-60
2022/02/10 20:04:36;;;;;;;0.00;0.00;;;;;;;5.26;67.04;102128.16;7360693;19;20058;-61
2022/02/10 20:07:17;;;;;;;0.00;0.00;;;;;;;5.24;66.99;102147.97;1424915;19;10023316;-60
2022/02/10 20:09:42;;;;;;;0.00;0.00;;;;;;;5.15;67.03;102145.19;6745257;19;10001537;-61
2022/02/10 20:12:08;;;;;;;0.00;0.00;;;;;;;5.17;66.85;102144.38;7363383;19;20036;-61
2022/02/10 20:14:34;;;;;;;0.00;0.00;;;;;;;5.15;67.07;102147.75;7358525;19;20017;-60
2022/02/10 20:17:01;;;;;;;0.00;0.00;;;;;;;5.11;67.07;102145.94;7363238;19;20014;-60
2022/02/10 20:19:27;;;;;;;0.05;0.05;;;;;;;5.09;67.46;102158.84;7362231;19;20509;-60
2022/02/10 20:21:53;;;;;;;0.00;0.00;;;;;;;5.06;67.65;102152.72;7346152;19;20035;-60
2022/02/10 20:24:18;;;;;;;0.00;0.00;;;;;;;5.04;67.41;102157.88;7359498;19;20010;-60
2022/02/10 20:26:44;;;;;;;0.00;0.00;;;;;;;5.03;67.94;102157.84;7356012;19;20595;-60
2022/02/10 20:29:11;;;;;;;0.00;0.00;;;;;;;5.01;68.14;102155.19;7361274;19;20014;-60
2022/02/10 20:31:39;;;;;;;0.00;0.00;;;;;;;5.00;67.78;102157.75;7369544;19;20030;-60
2022/02/10 20:34:06;;;;;;;0.10;0.10;;;;;;;4.99;67.95;102156.91;7367262;19;20020;-60
2022/02/10 20:36:34;;;;;;;0.00;0.00;;;;;;;4.98;67.72;102155.16;7368826;19;20038;-60
2022/02/10 20:39:00;;;;;;;0.00;0.00;;;;;;;4.97;67.70;102157.69;7351613;19;20011;-60
2022/02/10 20:41:32;;;;;;;0.00;0.00;;;;;;;4.97;68.09;102165.44;7361398;19;20042;-61
2022/02/10 20:43:59;;;;;;;0.10;0.10;;;;;;;4.95;68.09;102165.41;7355649;19;20393;-61
2022/02/10 20:46:28;;;;;;;0.03;0.03;;;;;;;4.95;68.32;102155.94;7359598;19;20007;-60
2022/02/10 20:48:54;;;;;;;0.00;0.00;;;;;;;4.94;68.35;102161.97;7360233;19;20006;-60
2022/02/10 20:51:20;;;;;;;0.00;0.00;;;;;;;4.91;68.56;102164.47;7355834;19;20410;-60
2022/02/10 20:53:48;;;;;;;0.10;0.10;;;;;;;4.79;68.72;102143.47;7358305;19;20629;-61
2022/02/10 20:56:18;;;;;;;0.10;0.10;;;;;;;4.92;68.28;102171.41;7357760;19;20023;-59
2022/02/10 20:58:45;;;;;;;0.05;0.05;;;;;;;4.93;68.51;102172.28;7354960;19;19999;-60
2022/02/10 21:01:14;;;;;;;0.00;0.00;;;;;;;4.92;68.08;102168.81;7351143;19;20002;-60
2022/02/10 21:03:39;;;;;;;0.00;0.00;;;;;;;4.82;68.40;102174.63;7345446;19;20421;-58
2022/02/10 21:06:19;;;;;;;0.00;0.00;;;;;;;4.88;68.47;102169.59;7347447;19;20469;-61
2022/02/10 21:08:53;;;;;;;0.00;0.00;;;;;;;4.89;68.45;102181.69;7340746;19;20010;-60
2022/02/10 21:11:23;;;;;;;0.00;0.00;;;;;;;4.88;68.40;102174.75;7353671;19;20003;-60
2022/02/10 21:13:48;;;;;;;0.00;0.00;;;;;;;4.88;68.22;102179.06;7353139;19;20010;-61
2022/02/10 21:16:14;;;;;;;0.10;0.10;;;;;;;4.85;68.24;102174.66;7351531;19;20109;-60
2022/02/10 21:18:41;;;;;;;0.00;0.00;;;;;;;4.71;68.16;102159.66;7340777;19;20007;-60
2022/02/10 21:21:12;;;;;;;0.00;0.00;;;;;;;4.78;68.37;102175.38;7339366;19;20457;-60
2022/02/10 21:23:46;;;;;;;0.00;0.00;;;;;;;4.79;68.44;102174.53;7347541;19;20006;-61
2022/02/10 21:26:14;;;;;;;0.10;0.10;;;;;;;4.76;68.12;102174.44;7348575;19;20968;-60
2022/02/10 21:28:41;;;;;;;;;;;;;;;4.74;67.55;102175.25;7335147;19;20014;-60
2022/02/10 21:31:08;;;;;;;0.00;0.00;;;;;;;4.68;67.80;102173.41;7357846;19;19933;-60
2022/02/10 21:38:50;;;;;;;0.00;0.00;;;;;;;4.43;68.34;102158.97;7363265;19;20031;-61
2022/02/10 21:42:24;;;;;;;0.00;0.00;;;;;;;4.47;68.50;102176.31;7368696;19;20572;-60
2022/02/10 22:18:54;;;;;;;0.00;0.00;;;;;;;4.08;68.97;102240.75;7370116;19;20024;-60
2022/02/10 22:21:27;;;;;;;0.00;0.00;;;;;;;4.07;69.28;102249.34;7374546;19;20431;-60
2022/02/10 22:23:52;;;;;;;0.00;0.00;;;;;;;4.05;68.83;102258.75;7357956;19;20811;-61
2022/02/10 22:26:21;;;;;;;0.00;0.00;;;;;;;4.02;68.97;102263.84;7361751;19;20017;-61
2022/02/10 22:36:22;;;;;;;0.00;0.00;;;;;;;3.91;69.77;102268.69;7357657;19;20025;-61
2022/02/10 22:38:50;;;;;;;0.10;0.10;;;;;;;3.89;69.69;102276.38;7353654;19;20109;-59
2022/02/10 22:41:16;;;;;;;0.00;0.00;;;;;;;3.87;69.70;102270.31;7358633;19;20025;-61
2022/02/10 22:43:47;;;;;;;0.00;0.00;;;;;;;3.85;69.36;102282.31;7362830;19;20015;-61
2022/02/10 22:46:15;;;;;;;0.00;0.00;;;;;;;3.83;70.05;102288.25;7357664;19;20014;-61
2022/02/10 22:48:43;;;;;;;0.00;0.00;;;;;;;3.77;69.74;102283.78;7364191;19;20017;-61
2022/02/10 22:51:09;;;;;;;0.00;0.00;;;;;;;3.78;69.86;102288.09;7357154;19;19999;-61
2022/02/10 22:53:35;;;;;;;0.00;0.00;;;;;;;3.76;69.84;102289.78;7357053;19;20010;-61
2022/02/10 22:56:00;;;;;;;0.00;0.00;;;;;;;3.74;69.81;102287.97;7360270;19;20016;-60
2022/02/10 22:58:26;;;;;;;0.00;0.00;;;;;;;3.71;69.66;102299.09;7361253;19;20006;-61
2022/02/10 23:00:51;;;;;;;0.00;0.00;;;;;;;3.69;69.73;102295.56;7359864;19;20014;-60
2022/02/10 23:03:23;;;;;;;0.00;0.00;;;;;;;3.66;69.67;102295.50;7362687;19;20011;-61
2022/02/10 23:05:49;;;;;;;0.00;0.00;;;;;;;3.66;70.17;102303.25;7356399;19;20014;-61
2022/02/10 23:08:15;;;;;;;0.00;0.00;;;;;;;3.53;69.65;102283.00;7362876;19;20010;-60
2022/02/10 23:13:14;;;;;;;0.00;0.00;;;;;;;3.61;69.84;102297.06;7364057;19;20018;-61
2022/02/10 23:15:41;;;;;;;0.05;0.05;;;;;;;3.58;70.01;102308.16;7362362;19;20103;-61
2022/02/10 23:18:12;;;;;;;0.00;0.00;;;;;;;3.57;69.78;102310.69;7360584;19;20007;-61
2022/02/10 23:20:38;;;;;;;0.00;0.00;;;;;;;3.54;69.99;102302.84;7366269;19;20472;-60
2022/02/10 23:23:06;;;;;;;0.00;0.00;;;;;;;3.53;69.80;102306.25;7362989;19;20094;-60
2022/02/10 23:25:32;;;;;;;0.10;0.10;;;;;;;3.49;69.74;102301.81;7368797;19;20361;-61
2022/02/10 23:27:59;;;;;;;0.00;0.00;;;;;;;3.48;69.91;102307.81;7370427;19;20085;-60
2022/02/10 23:30:25;;;;;;;0.00;0.00;;;;;;;3.47;70.31;102313.81;7359011;19;20010;-61
2022/02/10 23:32:54;;;;;;;0.10;0.10;;;;;;;3.44;70.31;102314.56;7367033;19;20040;-61
2022/02/10 23:37:57;;;;;;;;;;;;;;;3.41;69.38;102330.00;7371288;19;20018;-61
2022/02/10 23:40:28;;;;;;;0.10;0.10;;;;;;;3.38;69.79;102325.59;7369089;19;19910;-61
2022/02/10 23:42:55;;;;;;;0.00;0.00;;;;;;;3.35;70.40;102320.34;7365320;19;20473;-60
2022/02/10 23:45:24;;;;;;;0.00;0.00;;;;;;;3.30;69.91;102327.06;7363968;19;20081;-61
2022/02/10 23:47:51;;;;;;;0.00;0.00;;;;;;;3.26;70.18;102327.78;7363176;19;20011;-60
2022/02/10 23:50:20;;;;;;;0.10;0.10;;;;;;;3.24;70.45;102329.41;7367651;19;20031;-61
2022/02/10 23:52:47;;;;;;;0.05;0.05;;;;;;;3.21;70.19;102337.06;7322948;19;32059;-59
2022/02/10 23:55:20;;;;;;;0.00;0.00;;;;;;;3.03;70.48;102311.50;1133036;19;10001936;-60
2022/02/10 23:58:00;;;;;;;0.00;0.00;;;;;;;3.18;70.09;102344.69;7362801;19;20421;-60
